sensor_id;sensor_type;location;lat;lon;timestamp;pressure;altitude;pressure_sealevel;temperature;humidity
58239;BME280;44037;55.638;37.356;2024-03-07T00:02:19;99903.16;;;-5.06;45.36
58239;BME280;44037;55.638;37.356;2024-03-07T00:04:47;99912.78;;;-5.06;45.38
58239;BME280;44037;55.638;37.356;2024-03-07T00:07:14;99911.16;;;-5.09;45.41
58239;BME280;44037;55.638;37.356;2024-03-07T00:09:42;99906.06;;;-5.12;45.68
58239;BME280;44037;55.638;37.356;2024-03-07T00:12:11;99907.06;;;-5.15;46.00
58239;BME280;44037;55.638;37.356;2024-03-07T00:14:38;99903.72;;;-5.18;45.90
58239;BME280;44037;55.638;37.356;2024-03-07T00:17:06;99908.22;;;-5.20;46.19
58239;BME280;44037;55.638;37.356;2024-03-07T00:19:33;99900.56;;;-5.25;45.83
58239;BME280;44037;55.638;37.356;2024-03-07T00:21:59;99895.78;;;-5.34;45.70
58239;BME280;44037;55.638;37.356;2024-03-07T00:24:27;99899.59;;;-5.41;45.42
58239;BME280;44037;55.638;37.356;2024-03-07T00:26:54;99891.19;;;-5.48;45.71
58239;BME280;44037;55.638;37.356;2024-03-07T00:29:24;99899.31;;;-5.54;45.84
58239;BME280;44037;55.638;37.356;2024-03-07T00:31:51;99889.00;;;-5.57;46.10
58239;BME280;44037;55.638;37.356;2024-03-07T00:34:19;99894.41;;;-5.60;46.75
58239;BME280;44037;55.638;37.356;2024-03-07T00:36:49;99890.97;;;-5.63;46.57
58239;BME280;44037;55.638;37.356;2024-03-07T00:39:18;99889.28;;;-5.64;46.79
58239;BME280;44037;55.638;37.356;2024-03-07T00:41:45;99886.66;;;-5.64;46.62
58239;BME280;44037;55.638;37.356;2024-03-07T00:44:13;99888.38;;;-5.63;46.58
58239;BME280;44037;55.638;37.356;2024-03-07T00:46:42;99894.53;;;-5.64;46.67
58239;BME280;44037;55.638;37.356;2024-03-07T00:49:09;99888.56;;;-5.67;46.71
58239;BME280;44037;55.638;37.356;2024-03-07T00:51:36;99885.19;;;-5.69;46.67
58239;BME280;44037;55.638;37.356;2024-03-07T00:54:05;99887.94;;;-5.72;46.80
58239;BME280;44037;55.638;37.356;2024-03-07T00:56:33;99883.78;;;-5.76;46.64
58239;BME280;44037;55.638;37.356;2024-03-07T00:59:02;99889.22;;;-5.81;46.85
58239;BME280;44037;55.638;37.356;2024-03-07T01:01:29;99891.91;;;-5.83;46.94
58239;BME280;44037;55.638;37.356;2024-03-07T01:03:58;99889.59;;;-5.89;46.95
58239;BME280;44037;55.638;37.356;2024-03-07T01:06:26;99887.94;;;-5.91;46.95
58239;BME280;44037;55.638;37.356;2024-03-07T01:08:53;99882.84;;;-5.94;46.93
58239;BME280;44037;55.638;37.356;2024-03-07T01:11:20;99883.75;;;-5.96;46.93
58239;BME280;44037;55.638;37.356;2024-03-07T01:13:48;99886.38;;;-5.96;46.99
58239;BME280;44037;55.638;37.356;2024-03-07T01:16:15;99884.63;;;-5.95;47.16
58239;BME280;44037;55.638;37.356;2024-03-07T01:18:42;99879.38;;;-5.95;47.22
58239;BME280;44037;55.638;37.356;2024-03-07T01:21:11;99880.38;;;-5.98;47.29
58239;BME280;44037;55.638;37.356;2024-03-07T01:23:39;99875.16;;;-5.98;47.25
58239;BME280;44037;55.638;37.356;2024-03-07T01:26:06;99876.06;;;-5.99;47.22
58239;BME280;44037;55.638;37.356;2024-03-07T01:28:34;99876.97;;;-6.00;47.37
58239;BME280;44037;55.638;37.356;2024-03-07T01:31:02;99877.88;;;-6.01;47.54
58239;BME280;44037;55.638;37.356;2024-03-07T01:33:29;99873.72;;;-6.05;47.42
58239;BME280;44037;55.638;37.356;2024-03-07T01:35:57;99873.72;;;-6.05;47.41
58239;BME280;44037;55.638;37.356;2024-03-07T01:38:25;99874.63;;;-6.06;47.42
58239;BME280;44037;55.638;37.356;2024-03-07T01:40:52;99872.09;;;-6.07;47.49
58239;BME280;44037;55.638;37.356;2024-03-07T01:43:20;99870.34;;;-6.07;47.84
58239;BME280;44037;55.638;37.356;2024-03-07T01:45:48;99867.84;;;-6.10;47.66
58239;BME280;44037;55.638;37.356;2024-03-07T01:48:25;99860.16;;;-6.13;47.78
58239;BME280;44037;55.638;37.356;2024-03-07T01:50:53;99862.75;;;-6.13;47.62
58239;BME280;44037;55.638;37.356;2024-03-07T01:53:22;99861.97;;;-6.15;47.91
58239;BME280;44037;55.638;37.356;2024-03-07T01:55:51;99861.34;;;-6.20;47.66
58239;BME280;44037;55.638;37.356;2024-03-07T01:58:20;99862.38;;;-6.24;47.83
58239;BME280;44037;55.638;37.356;2024-03-07T02:00:48;99853.75;;;-6.26;48.21
58239;BME280;44037;55.638;37.356;2024-03-07T02:03:16;99856.50;;;-6.30;48.25
58239;BME280;44037;55.638;37.356;2024-03-07T02:05:44;99860.84;;;-6.28;48.21
58239;BME280;44037;55.638;37.356;2024-03-07T02:08:12;99852.13;;;-6.29;48.12
58239;BME280;44037;55.638;37.356;2024-03-07T02:10:41;99846.97;;;-6.31;48.09
58239;BME280;44037;55.638;37.356;2024-03-07T02:13:11;99848.81;;;-6.33;47.84
58239;BME280;44037;55.638;37.356;2024-03-07T02:15:38;99845.28;;;-6.32;47.63
58239;BME280;44037;55.638;37.356;2024-03-07T02:18:05;99842.81;;;-6.35;47.36
58239;BME280;44037;55.638;37.356;2024-03-07T02:20:32;99842.94;;;-6.38;47.61
58239;BME280;44037;55.638;37.356;2024-03-07T02:23:01;99845.41;;;-6.35;47.73
58239;BME280;44037;55.638;37.356;2024-03-07T02:25:29;99842.00;;;-6.37;47.41
58239;BME280;44037;55.638;37.356;2024-03-07T02:27:58;99839.53;;;-6.40;47.37
58239;BME280;44037;55.638;37.356;2024-03-07T02:30:25;99841.38;;;-6.42;47.33
58239;BME280;44037;55.638;37.356;2024-03-07T02:32:53;99830.97;;;-6.43;47.43
58239;BME280;44037;55.638;37.356;2024-03-07T02:35:21;99832.88;;;-6.47;47.47
58239;BME280;44037;55.638;37.356;2024-03-07T02:37:49;99834.59;;;-6.46;47.35
58239;BME280;44037;55.638;37.356;2024-03-07T02:40:18;99832.19;;;-6.51;47.24
58239;BME280;44037;55.638;37.356;2024-03-07T02:42:45;99834.91;;;-6.54;47.14
58239;BME280;44037;55.638;37.356;2024-03-07T02:45:13;99830.69;;;-6.56;47.23
58239;BME280;44037;55.638;37.356;2024-03-07T02:47:42;99825.59;;;-6.59;47.42
58239;BME280;44037;55.638;37.356;2024-03-07T02:50:10;99824.72;;;-6.60;47.28
58239;BME280;44037;55.638;37.356;2024-03-07T02:52:37;99826.66;;;-6.64;47.00
58239;BME280;44037;55.638;37.356;2024-03-07T02:55:05;99820.72;;;-6.67;47.24
58239;BME280;44037;55.638;37.356;2024-03-07T02:57:37;99827.81;;;-6.71;47.22
58239;BME280;44037;55.638;37.356;2024-03-07T03:00:07;99820.13;;;-6.74;47.33
58239;BME280;44037;55.638;37.356;2024-03-07T03:02:46;99830.69;;;-6.77;47.41
58239;BME280;44037;55.638;37.356;2024-03-07T03:05:14;99822.84;;;-6.77;47.44
58239;BME280;44037;55.638;37.356;2024-03-07T03:07:42;99832.38;;;-6.76;47.35
58239;BME280;44037;55.638;37.356;2024-03-07T03:10:20;99822.84;;;-6.77;47.43
58239;BME280;44037;55.638;37.356;2024-03-07T03:12:52;99823.78;;;-6.78;47.45
58239;BME280;44037;55.638;37.356;2024-03-07T03:15:20;99815.16;;;-6.80;47.53
58239;BME280;44037;55.638;37.356;2024-03-07T03:17:47;99823.00;;;-6.80;47.28
58239;BME280;44037;55.638;37.356;2024-03-07T03:20:15;99814.25;;;-6.79;47.58
58239;BME280;44037;55.638;37.356;2024-03-07T03:22:51;99815.97;;;-6.78;47.35
58239;BME280;44037;55.638;37.356;2024-03-07T03:25:19;99819.34;;;-6.76;47.44
58239;BME280;44037;55.638;37.356;2024-03-07T03:27:47;99821.03;;;-6.75;47.39
58239;BME280;44037;55.638;37.356;2024-03-07T03:30:16;99816.56;;;-6.73;47.46
58239;BME280;44037;55.638;37.356;2024-03-07T03:32:45;99812.28;;;-6.74;47.16
58239;BME280;44037;55.638;37.356;2024-03-07T03:35:13;99812.22;;;-6.72;47.03
58239;BME280;44037;55.638;37.356;2024-03-07T03:37:42;99815.88;;;-6.76;46.94
58239;BME280;44037;55.638;37.356;2024-03-07T03:40:10;99814.25;;;-6.79;47.04
58239;BME280;44037;55.638;37.356;2024-03-07T03:42:40;99810.78;;;-6.80;46.92
58239;BME280;44037;55.638;37.356;2024-03-07T03:45:09;99815.03;;;-6.77;47.38
58239;BME280;44037;55.638;37.356;2024-03-07T03:47:42;99813.97;;;-6.73;47.53
58239;BME280;44037;55.638;37.356;2024-03-07T03:50:11;99816.66;;;-6.74;47.32
58239;BME280;44037;55.638;37.356;2024-03-07T03:52:39;99810.44;;;-6.72;47.24
58239;BME280;44037;55.638;37.356;2024-03-07T03:55:08;99803.31;;;-6.68;47.28
58239;BME280;44037;55.638;37.356;2024-03-07T03:57:38;99817.19;;;-6.66;46.95
58239;BME280;44037;55.638;37.356;2024-03-07T04:00:07;99814.44;;;-6.63;46.71
58239;BME280;44037;55.638;37.356;2024-03-07T04:02:40;99815.25;;;-6.63;46.28
58239;BME280;44037;55.638;37.356;2024-03-07T04:05:09;99811.56;;;-6.57;46.12
58239;BME280;44037;55.638;37.356;2024-03-07T04:07:38;99807.16;;;-6.56;45.94
58239;BME280;44037;55.638;37.356;2024-03-07T04:10:07;99806.09;;;-6.52;46.00
58239;BME280;44037;55.638;37.356;2024-03-07T04:12:35;99804.13;;;-6.47;45.97
58239;BME280;44037;55.638;37.356;2024-03-07T04:15:04;99801.41;;;-6.44;45.57
58239;BME280;44037;55.638;37.356;2024-03-07T04:17:33;99803.03;;;-6.41;45.28
58239;BME280;44037;55.638;37.356;2024-03-07T04:20:01;99805.41;;;-6.37;45.36
58239;BME280;44037;55.638;37.356;2024-03-07T04:22:32;99800.84;;;-6.32;45.30
58239;BME280;44037;55.638;37.356;2024-03-07T04:25:00;99795.56;;;-6.30;44.90
58239;BME280;44037;55.638;37.356;2024-03-07T04:27:27;99791.16;;;-6.30;44.74
58239;BME280;44037;55.638;37.356;2024-03-07T04:29:56;99793.50;;;-6.23;45.08
58239;BME280;44037;55.638;37.356;2024-03-07T04:32:23;99787.22;;;-6.19;44.84
58239;BME280;44037;55.638;37.356;2024-03-07T04:34:51;99792.16;;;-6.13;44.63
58239;BME280;44037;55.638;37.356;2024-03-07T04:37:18;99792.81;;;-6.08;44.40
58239;BME280;44037;55.638;37.356;2024-03-07T04:39:46;99792.44;;;-6.00;44.52
58239;BME280;44037;55.638;37.356;2024-03-07T04:42:14;99794.84;;;-5.96;44.03
58239;BME280;44037;55.638;37.356;2024-03-07T04:44:41;99795.53;;;-5.92;44.27
58239;BME280;44037;55.638;37.356;2024-03-07T04:47:09;99791.84;;;-5.88;43.86
58239;BME280;44037;55.638;37.356;2024-03-07T04:49:36;99789.81;;;-5.81;43.80
58239;BME280;44037;55.638;37.356;2024-03-07T04:52:04;99792.06;;;-5.73;43.76
58239;BME280;44037;55.638;37.356;2024-03-07T04:54:32;99785.53;;;-5.65;43.46
58239;BME280;44037;55.638;37.356;2024-03-07T04:57:01;99788.78;;;-5.59;43.28
58239;BME280;44037;55.638;37.356;2024-03-07T04:59:29;99784.16;;;-5.54;43.40
58239;BME280;44037;55.638;37.356;2024-03-07T05:01:57;99789.88;;;-5.46;43.29
58239;BME280;44037;55.638;37.356;2024-03-07T05:04:24;99777.44;;;-5.41;42.96
58239;BME280;44037;55.638;37.356;2024-03-07T05:06:55;99779.19;;;-5.41;42.43
58239;BME280;44037;55.638;37.356;2024-03-07T05:09:23;99780.50;;;-5.50;42.25
58239;BME280;44037;55.638;37.356;2024-03-07T05:11:51;99778.25;;;-5.58;42.64
58239;BME280;44037;55.638;37.356;2024-03-07T05:14:21;99776.94;;;-5.49;42.80
58239;BME280;44037;55.638;37.356;2024-03-07T05:16:49;99784.19;;;-5.37;42.86
58239;BME280;44037;55.638;37.356;2024-03-07T05:19:31;99772.03;;;-5.20;42.54
58239;BME280;44037;55.638;37.356;2024-03-07T05:21:59;99777.44;;;-5.06;42.81
58239;BME280;44037;55.638;37.356;2024-03-07T05:24:26;99771.72;;;-4.97;42.68
58239;BME280;44037;55.638;37.356;2024-03-07T05:26:54;99781.41;;;-4.81;43.09
58239;BME280;44037;55.638;37.356;2024-03-07T05:29:25;99783.22;;;-4.66;43.13
58239;BME280;44037;55.638;37.356;2024-03-07T05:31:53;99779.81;;;-4.50;43.11
58239;BME280;44037;55.638;37.356;2024-03-07T05:34:20;99775.44;;;-4.34;42.50
58239;BME280;44037;55.638;37.356;2024-03-07T05:36:49;99776.56;;;-4.22;41.97
58239;BME280;44037;55.638;37.356;2024-03-07T05:39:17;99775.03;;;-4.10;42.12
58239;BME280;44037;55.638;37.356;2024-03-07T05:41:45;99769.13;;;-3.97;42.06
58239;BME280;44037;55.638;37.356;2024-03-07T05:44:12;99778.09;;;-3.86;41.59
58239;BME280;44037;55.638;37.356;2024-03-07T05:46:42;99776.56;;;-3.74;41.48
58239;BME280;44037;55.638;37.356;2024-03-07T05:49:12;99776.72;;;-3.61;41.45
58239;BME280;44037;55.638;37.356;2024-03-07T05:51:42;99780.41;;;-3.49;41.12
58239;BME280;44037;55.638;37.356;2024-03-07T05:54:11;99784.97;;;-3.37;41.03
58239;BME280;44037;55.638;37.356;2024-03-07T05:56:40;99773.00;;;-3.26;40.77
58239;BME280;44037;55.638;37.356;2024-03-07T05:59:07;99774.91;;;-3.14;40.50
58239;BME280;44037;55.638;37.356;2024-03-07T06:01:35;99767.44;;;-3.06;40.43
58239;BME280;44037;55.638;37.356;2024-03-07T06:04:05;99761.44;;;-2.93;40.14
58239;BME280;44037;55.638;37.356;2024-03-07T06:06:34;99761.84;;;-2.85;39.76
58239;BME280;44037;55.638;37.356;2024-03-07T06:09:05;99761.94;;;-2.72;40.12
58239;BME280;44037;55.638;37.356;2024-03-07T06:11:33;99753.28;;;-2.60;39.61
58239;BME280;44037;55.638;37.356;2024-03-07T06:14:01;99751.88;;;-2.51;39.97
58239;BME280;44037;55.638;37.356;2024-03-07T06:16:30;99753.56;;;-2.36;39.92
58239;BME280;44037;55.638;37.356;2024-03-07T06:18:59;99751.22;;;-2.26;39.49
58239;BME280;44037;55.638;37.356;2024-03-07T06:21:29;99758.53;;;-2.17;39.06
58239;BME280;44037;55.638;37.356;2024-03-07T06:23:56;99750.16;;;-2.09;39.10
58239;BME280;44037;55.638;37.356;2024-03-07T06:26:26;99753.13;;;-2.01;38.83
58239;BME280;44037;55.638;37.356;2024-03-07T06:29:04;99759.50;;;-1.90;38.99
58239;BME280;44037;55.638;37.356;2024-03-07T06:31:33;99751.22;;;-1.84;38.65
58239;BME280;44037;55.638;37.356;2024-03-07T06:34:01;99748.50;;;-1.83;38.05
58239;BME280;44037;55.638;37.356;2024-03-07T06:36:30;99750.19;;;-1.81;37.87
58239;BME280;44037;55.638;37.356;2024-03-07T06:38:57;99753.69;;;-1.81;37.81
58239;BME280;44037;55.638;37.356;2024-03-07T06:41:24;99756.38;;;-1.83;38.00
58239;BME280;44037;55.638;37.356;2024-03-07T06:43:52;99748.41;;;-1.81;36.87
58239;BME280;44037;55.638;37.356;2024-03-07T06:46:21;99739.75;;;-1.83;37.82
58239;BME280;44037;55.638;37.356;2024-03-07T06:48:50;99738.59;;;-1.79;38.54
58239;BME280;44037;55.638;37.356;2024-03-07T06:51:18;99744.78;;;-1.65;38.35
58239;BME280;44037;55.638;37.356;2024-03-07T06:53:47;99745.00;;;-1.56;38.71
58239;BME280;44037;55.638;37.356;2024-03-07T06:56:17;99738.19;;;-1.45;38.51
58239;BME280;44037;55.638;37.356;2024-03-07T06:58:44;99739.16;;;-1.34;38.12
58239;BME280;44037;55.638;37.356;2024-03-07T07:01:12;99733.28;;;-1.24;37.96
58239;BME280;44037;55.638;37.356;2024-03-07T07:03:41;99734.34;;;-1.14;37.76
58239;BME280;44037;55.638;37.356;2024-03-07T07:06:10;99725.84;;;-1.05;37.53
58239;BME280;44037;55.638;37.356;2024-03-07T07:08:38;99725.31;;;-0.97;37.53
58239;BME280;44037;55.638;37.356;2024-03-07T07:11:07;99720.25;;;-0.87;37.59
58239;BME280;44037;55.638;37.356;2024-03-07T07:13:37;99724.03;;;-0.78;37.50
58239;BME280;44037;55.638;37.356;2024-03-07T07:16:05;99728.69;;;-0.69;37.49
58239;BME280;44037;55.638;37.356;2024-03-07T07:18:32;99728.91;;;-0.59;37.42
58239;BME280;44037;55.638;37.356;2024-03-07T07:20:59;99719.59;;;-0.52;37.05
58239;BME280;44037;55.638;37.356;2024-03-07T07:23:28;99726.97;;;-0.44;36.85
58239;BME280;44037;55.638;37.356;2024-03-07T07:25:56;99722.84;;;-0.36;36.86
58239;BME280;44037;55.638;37.356;2024-03-07T07:28:25;99725.34;;;-0.21;36.78
58239;BME280;44037;55.638;37.356;2024-03-07T07:30:52;99714.13;;;-0.12;36.32
58239;BME280;44037;55.638;37.356;2024-03-07T07:33:20;99716.09;;;-0.03;36.64
58239;BME280;44037;55.638;37.356;2024-03-07T07:35:47;99719.03;;;0.06;36.27
58239;BME280;44037;55.638;37.356;2024-03-07T07:38:15;99711.16;;;0.17;36.86
58239;BME280;44037;55.638;37.356;2024-03-07T07:40:42;99714.47;;;0.32;36.69
58239;BME280;44037;55.638;37.356;2024-03-07T07:43:10;99719.69;;;0.45;35.68
58239;BME280;44037;55.638;37.356;2024-03-07T07:45:40;99714.81;;;0.52;35.89
58239;BME280;44037;55.638;37.356;2024-03-07T07:48:08;99706.06;;;0.62;36.12
58239;BME280;44037;55.638;37.356;2024-03-07T07:50:37;99701.53;;;0.76;35.98
58239;BME280;44037;55.638;37.356;2024-03-07T07:53:05;99706.84;;;0.87;35.82
58239;BME280;44037;55.638;37.356;2024-03-07T07:55:35;99702.53;;;0.97;35.51
58239;BME280;44037;55.638;37.356;2024-03-07T07:58:03;99705.22;;;1.09;35.44
58239;BME280;44037;55.638;37.356;2024-03-07T08:00:31;99697.44;;;1.19;35.09
58239;BME280;44037;55.638;37.356;2024-03-07T08:03:01;99692.50;;;1.25;34.94
58239;BME280;44037;55.638;37.356;2024-03-07T08:05:30;99688.16;;;1.36;35.03
58239;BME280;44037;55.638;37.356;2024-03-07T08:07:59;99688.88;;;1.49;35.00
58239;BME280;44037;55.638;37.356;2024-03-07T08:10:29;99673.72;;;1.62;34.47
58239;BME280;44037;55.638;37.356;2024-03-07T08:12:58;99674.66;;;1.73;34.21
58239;BME280;44037;55.638;37.356;2024-03-07T08:15:27;99673.91;;;1.82;33.95
58239;BME280;44037;55.638;37.356;2024-03-07T08:17:55;99671.34;;;1.92;33.67
58239;BME280;44037;55.638;37.356;2024-03-07T08:20:25;99672.69;;;1.98;33.12
58239;BME280;44037;55.638;37.356;2024-03-07T08:22:54;99668.81;;;2.02;33.37
58239;BME280;44037;55.638;37.356;2024-03-07T08:25:22;99669.41;;;2.05;33.17
58239;BME280;44037;55.638;37.356;2024-03-07T08:27:51;99660.47;;;2.06;32.92
58239;BME280;44037;55.638;37.356;2024-03-07T08:30:20;99663.59;;;2.11;32.86
58239;BME280;44037;55.638;37.356;2024-03-07T08:32:50;99664.91;;;2.17;32.74
58239;BME280;44037;55.638;37.356;2024-03-07T08:35:18;99655.72;;;2.21;32.19
58239;BME280;44037;55.638;37.356;2024-03-07T08:37:47;99666.78;;;2.26;32.46
58239;BME280;44037;55.638;37.356;2024-03-07T08:40:15;99666.78;;;2.26;32.30
58239;BME280;44037;55.638;37.356;2024-03-07T08:42:47;99655.94;;;2.29;32.51
58239;BME280;44037;55.638;37.356;2024-03-07T08:45:16;99652.06;;;2.34;31.55
58239;BME280;44037;55.638;37.356;2024-03-07T08:47:46;99649.88;;;2.39;32.10
58239;BME280;44037;55.638;37.356;2024-03-07T08:50:14;99650.34;;;2.44;32.13
58239;BME280;44037;55.638;37.356;2024-03-07T08:52:44;99643.81;;;2.48;32.12
58239;BME280;44037;55.638;37.356;2024-03-07T08:55:14;99647.75;;;2.54;31.84
58239;BME280;44037;55.638;37.356;2024-03-07T08:57:43;99644.72;;;2.58;32.09
58239;BME280;44037;55.638;37.356;2024-03-07T09:00:13;99638.63;;;2.68;31.63
58239;BME280;44037;55.638;37.356;2024-03-07T09:02:49;99636.75;;;2.79;31.53
58239;BME280;44037;55.638;37.356;2024-03-07T09:05:18;99633.31;;;2.89;31.74
58239;BME280;44037;55.638;37.356;2024-03-07T09:07:46;99632.53;;;2.98;31.36
58239;BME280;44037;55.638;37.356;2024-03-07T09:10:15;99627.13;;;3.09;31.62
58239;BME280;44037;55.638;37.356;2024-03-07T09:12:43;99624.53;;;3.19;31.56
58239;BME280;44037;55.638;37.356;2024-03-07T09:15:11;99623.47;;;3.32;31.35
58239;BME280;44037;55.638;37.356;2024-03-07T09:17:42;99620.69;;;3.43;31.39
58239;BME280;44037;55.638;37.356;2024-03-07T09:20:11;99616.94;;;3.55;31.12
58239;BME280;44037;55.638;37.356;2024-03-07T09:22:42;99616.69;;;3.68;31.35
58239;BME280;44037;55.638;37.356;2024-03-07T09:25:10;99612.09;;;3.80;31.03
58239;BME280;44037;55.638;37.356;2024-03-07T09:27:40;99610.00;;;3.84;30.50
58239;BME280;44037;55.638;37.356;2024-03-07T09:30:08;99612.53;;;3.75;30.79
58239;BME280;44037;55.638;37.356;2024-03-07T09:32:39;99613.63;;;3.63;30.24
58239;BME280;44037;55.638;37.356;2024-03-07T09:35:07;99608.31;;;3.22;30.77
58239;BME280;44037;55.638;37.356;2024-03-07T09:37:39;99607.84;;;3.07;31.62
58239;BME280;44037;55.638;37.356;2024-03-07T09:40:08;99602.19;;;3.22;31.38
58239;BME280;44037;55.638;37.356;2024-03-07T09:42:43;99597.88;;;3.31;31.33
58239;BME280;44037;55.638;37.356;2024-03-07T09:45:15;99594.78;;;3.25;31.83
58239;BME280;44037;55.638;37.356;2024-03-07T09:47:45;99604.06;;;3.41;31.85
58239;BME280;44037;55.638;37.356;2024-03-07T09:50:16;99592.44;;;3.32;31.25
58239;BME280;44037;55.638;37.356;2024-03-07T09:52:45;99596.63;;;3.35;31.67
58239;BME280;44037;55.638;37.356;2024-03-07T09:55:16;99597.94;;;3.50;31.90
58239;BME280;44037;55.638;37.356;2024-03-07T09:57:48;99596.84;;;3.63;31.70
58239;BME280;44037;55.638;37.356;2024-03-07T10:00:17;99594.06;;;3.74;31.77
58239;BME280;44037;55.638;37.356;2024-03-07T10:02:55;99596.00;;;3.82;31.52
58239;BME280;44037;55.638;37.356;2024-03-07T10:05:27;99598.50;;;3.64;30.82
58239;BME280;44037;55.638;37.356;2024-03-07T10:07:55;99594.28;;;3.41;31.37
58239;BME280;44037;55.638;37.356;2024-03-07T10:10:23;99594.94;;;3.34;32.04
58239;BME280;44037;55.638;37.356;2024-03-07T10:12:52;99588.97;;;2.49;32.56
58239;BME280;44037;55.638;37.356;2024-03-07T10:15:20;99599.78;;;1.82;33.97
58239;BME280;44037;55.638;37.356;2024-03-07T10:17:48;99607.09;;;1.90;34.58
58239;BME280;44037;55.638;37.356;2024-03-07T10:20:18;99600.59;;;1.83;34.56
58239;BME280;44037;55.638;37.356;2024-03-07T10:22:46;99589.16;;;2.15;34.97
58239;BME280;44037;55.638;37.356;2024-03-07T10:25:17;99596.34;;;2.24;34.54
58239;BME280;44037;55.638;37.356;2024-03-07T10:27:45;99586.91;;;1.77;34.69
58239;BME280;44037;55.638;37.356;2024-03-07T10:30:16;99586.56;;;1.71;34.50
58239;BME280;44037;55.638;37.356;2024-03-07T10:32:47;99579.88;;;1.55;34.80
58239;BME280;44037;55.638;37.356;2024-03-07T10:35:20;99579.59;;;1.70;34.79
58239;BME280;44037;55.638;37.356;2024-03-07T10:37:50;99587.38;;;1.71;34.91
58239;BME280;44037;55.638;37.356;2024-03-07T10:40:19;99587.38;;;2.04;34.88
58239;BME280;44037;55.638;37.356;2024-03-07T10:42:49;99582.94;;;2.25;34.90
58239;BME280;44037;55.638;37.356;2024-03-07T10:45:21;99567.09;;;2.56;34.46
58239;BME280;44037;55.638;37.356;2024-03-07T10:47:53;99567.69;;;2.60;34.29
58239;BME280;44037;55.638;37.356;2024-03-07T10:50:30;99551.72;;;2.50;34.44
58239;BME280;44037;55.638;37.356;2024-03-07T10:53:09;99557.34;;;2.36;33.98
58239;BME280;44037;55.638;37.356;2024-03-07T10:55:42;99557.19;;;2.27;34.39
58239;BME280;44037;55.638;37.356;2024-03-07T10:58:14;99560.66;;;2.28;34.25
58239;BME280;44037;55.638;37.356;2024-03-07T11:00:52;99544.78;;;1.74;34.72
58239;BME280;44037;55.638;37.356;2024-03-07T11:03:22;99554.69;;;1.61;35.44
58239;BME280;44037;55.638;37.356;2024-03-07T11:05:51;99552.78;;;1.52;34.92
58239;BME280;44037;55.638;37.356;2024-03-07T11:08:19;99546.69;;;1.51;35.58
58239;BME280;44037;55.638;37.356;2024-03-07T11:10:46;99553.53;;;1.54;35.34
58239;BME280;44037;55.638;37.356;2024-03-07T11:13:14;99541.38;;;1.51;35.46
58239;BME280;44037;55.638;37.356;2024-03-07T11:15:45;99540.59;;;1.72;35.16
58239;BME280;44037;55.638;37.356;2024-03-07T11:18:16;99546.38;;;1.66;35.38
58239;BME280;44037;55.638;37.356;2024-03-07T11:20:43;99535.91;;;1.96;35.28
58239;BME280;44037;55.638;37.356;2024-03-07T11:23:25;99532.16;;;2.20;35.53
58239;BME280;44037;55.638;37.356;2024-03-07T11:26:02;99524.25;;;2.51;35.15
58239;BME280;44037;55.638;37.356;2024-03-07T11:28:35;99523.81;;;2.77;34.69
58239;BME280;44037;55.638;37.356;2024-03-07T11:31:08;99527.63;;;2.84;34.57
58239;BME280;44037;55.638;37.356;2024-03-07T11:33:38;99533.66;;;2.65;34.53
58239;BME280;44037;55.638;37.356;2024-03-07T11:36:10;99515.16;;;2.44;34.76
58239;BME280;44037;55.638;37.356;2024-03-07T11:38:38;99514.38;;;2.63;34.85
58239;BME280;44037;55.638;37.356;2024-03-07T11:41:05;99511.78;;;2.73;34.95
58239;BME280;44037;55.638;37.356;2024-03-07T11:43:34;99520.47;;;2.85;34.47
58239;BME280;44037;55.638;37.356;2024-03-07T11:46:02;99507.72;;;2.69;34.52
58239;BME280;44037;55.638;37.356;2024-03-07T11:48:40;99517.84;;;2.85;34.88
58239;BME280;44037;55.638;37.356;2024-03-07T11:51:12;99514.38;;;2.53;34.29
58239;BME280;44037;55.638;37.356;2024-03-07T11:53:39;99514.94;;;2.57;34.41
58239;BME280;44037;55.638;37.356;2024-03-07T11:56:08;99513.75;;;2.19;35.30
58239;BME280;44037;55.638;37.356;2024-03-07T11:58:43;99511.91;;;2.19;35.29
58239;BME280;44037;55.638;37.356;2024-03-07T12:01:11;99507.88;;;2.36;35.22
58239;BME280;44037;55.638;37.356;2024-03-07T12:03:41;99505.91;;;2.38;34.77
58239;BME280;44037;55.638;37.356;2024-03-07T12:06:09;99510.53;;;2.46;34.69
58239;BME280;44037;55.638;37.356;2024-03-07T12:08:39;99500.66;;;2.79;34.69
58239;BME280;44037;55.638;37.356;2024-03-07T12:11:08;99509.53;;;3.09;34.76
58239;BME280;44037;55.638;37.356;2024-03-07T12:13:41;99489.19;;;3.29;34.02
58239;BME280;44037;55.638;37.356;2024-03-07T12:16:09;99489.69;;;3.03;34.06
58239;BME280;44037;55.638;37.356;2024-03-07T12:18:36;99482.28;;;3.07;34.27
58239;BME280;44037;55.638;37.356;2024-03-07T12:21:05;99493.91;;;3.06;34.60
58239;BME280;44037;55.638;37.356;2024-03-07T12:23:34;99481.81;;;2.82;34.32
58239;BME280;44037;55.638;37.356;2024-03-07T12:26:06;99478.34;;;2.51;34.37
58239;BME280;44037;55.638;37.356;2024-03-07T12:28:33;99474.22;;;2.68;34.72
58239;BME280;44037;55.638;37.356;2024-03-07T12:31:01;99472.34;;;2.99;34.60
58239;BME280;44037;55.638;37.356;2024-03-07T12:33:30;99471.81;;;2.95;34.10
58239;BME280;44037;55.638;37.356;2024-03-07T12:36:06;99464.56;;;3.17;34.12
58239;BME280;44037;55.638;37.356;2024-03-07T12:38:34;99463.97;;;2.94;33.87
58239;BME280;44037;55.638;37.356;2024-03-07T12:41:03;99465.81;;;3.03;33.60
58239;BME280;44037;55.638;37.356;2024-03-07T12:43:33;99460.09;;;2.98;34.13
58239;BME280;44037;55.638;37.356;2024-03-07T12:46:00;99457.88;;;2.62;34.15
58239;BME280;44037;55.638;37.356;2024-03-07T12:48:31;99456.25;;;2.81;34.14
58239;BME280;44037;55.638;37.356;2024-03-07T12:50:58;99458.94;;;2.91;34.17
58239;BME280;44037;55.638;37.356;2024-03-07T12:53:27;99450.03;;;3.02;34.30
58239;BME280;44037;55.638;37.356;2024-03-07T12:55:55;99452.81;;;2.90;34.00
58239;BME280;44037;55.638;37.356;2024-03-07T12:58:22;99447.81;;;2.56;34.07
58239;BME280;44037;55.638;37.356;2024-03-07T13:00:52;99444.28;;;2.46;34.43
58239;BME280;44037;55.638;37.356;2024-03-07T13:03:21;99437.03;;;2.48;34.34
58239;BME280;44037;55.638;37.356;2024-03-07T13:05:49;99432.25;;;2.42;34.39